sensor_id;sensor_type;location;lat;lon;timestamp;P1;durP1;ratioP1;P2;durP2;ratioP2
6386;SDS011;3226;42.162;24.756;2023-08-31T00:00:25;7.40;;;7.10;;
6386;SDS011;3226;42.162;24.756;2023-08-31T00:02:53;7.47;;;7.17;;
6386;SDS011;3226;42.162;24.756;2023-08-31T00:05:21;6.93;;;6.63;;
6386;SDS011;3226;42.162;24.756;2023-08-31T00:07:51;7.27;;;6.97;;
6386;SDS011;3226;42.162;24.756;2023-08-31T00:10:18;7.20;;;6.90;;
6386;SDS011;3226;42.162;24.756;2023-08-31T00:12:48;6.53;;;6.23;;
6386;SDS011;3226;42.162;24.756;2023-08-31T00:15:15;7.07;;;6.78;;
6386;SDS011;3226;42.162;24.756;2023-08-31T00:17:43;7.13;;;6.83;;
6386;SDS011;3226;42.162;24.756;2023-08-31T00:20:11;7.37;;;7.07;;
6386;SDS011;3226;42.162;24.756;2023-08-31T00:22:39;6.90;;;6.60;;
6386;SDS011;3226;42.162;24.756;2023-08-31T00:25:07;7.13;;;6.83;;
6386;SDS011;3226;42.162;24.756;2023-08-31T00:27:35;8.83;;;8.23;;
6386;SDS011;3226;42.162;24.756;2023-08-31T00:30:06;8.23;;;7.90;;
6386;SDS011;3226;42.162;24.756;2023-08-31T00:32:35;7.97;;;7.67;;
6386;SDS011;3226;42.162;24.756;2023-08-31T00:35:03;7.87;;;7.57;;
6386;SDS011;3226;42.162;24.756;2023-08-31T00:37:31;6.77;;;6.47;;
6386;SDS011;3226;42.162;24.756;2023-08-31T00:39:59;6.90;;;6.60;;
6386;SDS011;3226;42.162;24.756;2023-08-31T00:42:27;6.07;;;5.87;;
6386;SDS011;3226;42.162;24.756;2023-08-31T00:44:56;6.93;;;6.63;;
6386;SDS011;3226;42.162;24.756;2023-08-31T00:47:25;6.27;;;6.03;;
6386;SDS011;3226;42.162;24.756;2023-08-31T00:49:53;5.87;;;5.67;;
6386;SDS011;3226;42.162;24.756;2023-08-31T00:52:21;7.17;;;6.87;;
6386;SDS011;3226;42.162;24.756;2023-08-31T00:54:49;7.90;;;7.60;;
6386;SDS011;3226;42.162;24.756;2023-08-31T00:57:18;6.77;;;6.47;;
6386;SDS011;3226;42.162;24.756;2023-08-31T00:59:46;7.23;;;6.93;;
6386;SDS011;3226;42.162;24.756;2023-08-31T01:02:15;6.97;;;6.67;;
6386;SDS011;3226;42.162;24.756;2023-08-31T01:04:50;7.60;;;7.30;;
6386;SDS011;3226;42.162;24.756;2023-08-31T01:07:21;7.67;;;7.37;;
6386;SDS011;3226;42.162;24.756;2023-08-31T01:09:52;6.70;;;6.40;;
6386;SDS011;3226;42.162;24.756;2023-08-31T01:12:24;6.97;;;6.67;;
6386;SDS011;3226;42.162;24.756;2023-08-31T01:14:58;6.77;;;6.47;;
6386;SDS011;3226;42.162;24.756;2023-08-31T01:17:29;5.77;;;5.57;;
6386;SDS011;3226;42.162;24.756;2023-08-31T01:19:59;6.47;;;6.18;;
6386;SDS011;3226;42.162;24.756;2023-08-31T01:22:30;7.03;;;6.73;;
6386;SDS011;3226;42.162;24.756;2023-08-31T01:25:00;6.73;;;6.43;;
6386;SDS011;3226;42.162;24.756;2023-08-31T01:27:31;7.30;;;7.00;;
6386;SDS011;3226;42.162;24.756;2023-08-31T01:29:59;5.97;;;5.77;;
6386;SDS011;3226;42.162;24.756;2023-08-31T01:32:27;6.10;;;5.90;;
6386;SDS011;3226;42.162;24.756;2023-08-31T01:34:55;7.00;;;6.70;;
6386;SDS011;3226;42.162;24.756;2023-08-31T01:37:26;6.73;;;6.43;;
6386;SDS011;3226;42.162;24.756;2023-08-31T01:39:56;6.73;;;6.40;;
6386;SDS011;3226;42.162;24.756;2023-08-31T01:42:25;7.23;;;6.93;;
6386;SDS011;3226;42.162;24.756;2023-08-31T01:44:53;7.40;;;7.10;;
6386;SDS011;3226;42.162;24.756;2023-08-31T01:47:22;7.80;;;7.50;;
6386;SDS011;3226;42.162;24.756;2023-08-31T01:49:51;7.10;;;6.80;;
6386;SDS011;3226;42.162;24.756;2023-08-31T01:52:19;7.93;;;7.63;;
6386;SDS011;3226;42.162;24.756;2023-08-31T01:54:47;7.60;;;7.30;;
6386;SDS011;3226;42.162;24.756;2023-08-31T01:57:15;7.90;;;7.60;;
6386;SDS011;3226;42.162;24.756;2023-08-31T01:59:44;8.03;;;7.73;;
6386;SDS011;3226;42.162;24.756;2023-08-31T02:02:11;7.83;;;7.53;;
6386;SDS011;3226;42.162;24.756;2023-08-31T02:04:40;7.13;;;6.83;;
6386;SDS011;3226;42.162;24.756;2023-08-31T02:07:07;7.50;;;7.20;;
6386;SDS011;3226;42.162;24.756;2023-08-31T02:09:35;9.13;;;8.73;;
6386;SDS011;3226;42.162;24.756;2023-08-31T02:12:03;7.93;;;7.63;;
6386;SDS011;3226;42.162;24.756;2023-08-31T02:14:31;8.40;;;8.00;;
6386;SDS011;3226;42.162;24.756;2023-08-31T02:17:00;7.77;;;7.47;;
6386;SDS011;3226;42.162;24.756;2023-08-31T02:19:28;7.43;;;7.13;;
6386;SDS011;3226;42.162;24.756;2023-08-31T02:21:56;7.30;;;7.00;;
6386;SDS011;3226;42.162;24.756;2023-08-31T02:24:23;6.90;;;6.60;;
6386;SDS011;3226;42.162;24.756;2023-08-31T02:26:51;6.90;;;6.60;;
6386;SDS011;3226;42.162;24.756;2023-08-31T02:29:19;6.60;;;6.30;;
6386;SDS011;3226;42.162;24.756;2023-08-31T02:31:47;6.43;;;6.13;;
6386;SDS011;3226;42.162;24.756;2023-08-31T02:34:16;6.43;;;6.13;;
6386;SDS011;3226;42.162;24.756;2023-08-31T02:36:43;6.20;;;5.97;;
6386;SDS011;3226;42.162;24.756;2023-08-31T02:39:11;6.90;;;6.60;;
6386;SDS011;3226;42.162;24.756;2023-08-31T02:41:40;6.83;;;6.53;;
6386;SDS011;3226;42.162;24.756;2023-08-31T02:44:08;6.30;;;6.00;;
6386;SDS011;3226;42.162;24.756;2023-08-31T02:46:35;6.33;;;5.93;;
6386;SDS011;3226;42.162;24.756;2023-08-31T02:49:03;6.37;;;6.07;;
6386;SDS011;3226;42.162;24.756;2023-08-31T02:51:32;6.47;;;6.17;;
6386;SDS011;3226;42.162;24.756;2023-08-31T02:54:00;6.37;;;6.10;;
6386;SDS011;3226;42.162;24.756;2023-08-31T02:56:27;5.73;;;5.53;;
6386;SDS011;3226;42.162;24.756;2023-08-31T02:58:55;6.10;;;5.90;;
6386;SDS011;3226;42.162;24.756;2023-08-31T03:01:23;6.37;;;6.07;;
6386;SDS011;3226;42.162;24.756;2023-08-31T03:03:50;6.97;;;6.67;;
6386;SDS011;3226;42.162;24.756;2023-08-31T03:06:18;7.13;;;6.83;;
6386;SDS011;3226;42.162;24.756;2023-08-31T03:08:47;7.43;;;7.13;;
6386;SDS011;3226;42.162;24.756;2023-08-31T03:11:15;6.37;;;6.07;;
6386;SDS011;3226;42.162;24.756;2023-08-31T03:13:43;7.13;;;6.83;;
6386;SDS011;3226;42.162;24.756;2023-08-31T03:16:10;6.47;;;6.17;;
6386;SDS011;3226;42.162;24.756;2023-08-31T03:18:38;6.83;;;6.53;;
6386;SDS011;3226;42.162;24.756;2023-08-31T03:21:06;6.70;;;6.40;;
6386;SDS011;3226;42.162;24.756;2023-08-31T03:23:34;7.00;;;6.70;;
6386;SDS011;3226;42.162;24.756;2023-08-31T03:26:07;6.70;;;6.40;;
6386;SDS011;3226;42.162;24.756;2023-08-31T03:28:35;6.93;;;6.63;;
6386;SDS011;3226;42.162;24.756;2023-08-31T03:31:05;6.63;;;6.33;;
6386;SDS011;3226;42.162;24.756;2023-08-31T03:33:32;6.80;;;6.50;;
6386;SDS011;3226;42.162;24.756;2023-08-31T03:36:00;6.43;;;6.13;;
6386;SDS011;3226;42.162;24.756;2023-08-31T03:38:30;5.67;;;5.47;;
6386;SDS011;3226;42.162;24.756;2023-08-31T03:40:58;6.67;;;6.37;;
6386;SDS011;3226;42.162;24.756;2023-08-31T03:43:27;6.07;;;5.87;;
6386;SDS011;3226;42.162;24.756;2023-08-31T03:45:55;6.57;;;6.27;;
6386;SDS011;3226;42.162;24.756;2023-08-31T03:48:23;6.57;;;6.27;;
6386;SDS011;3226;42.162;24.756;2023-08-31T03:50:51;7.10;;;6.80;;
6386;SDS011;3226;42.162;24.756;2023-08-31T03:53:19;6.80;;;6.50;;
6386;SDS011;3226;42.162;24.756;2023-08-31T03:55:47;7.57;;;7.27;;
6386;SDS011;3226;42.162;24.756;2023-08-31T03:58:14;6.10;;;5.87;;
6386;SDS011;3226;42.162;24.756;2023-08-31T04:00:44;5.87;;;5.67;;
6386;SDS011;3226;42.162;24.756;2023-08-31T04:03:12;5.87;;;5.67;;
6386;SDS011;3226;42.162;24.756;2023-08-31T04:05:40;6.57;;;6.27;;
6386;SDS011;3226;42.162;24.756;2023-08-31T04:08:08;6.27;;;6.00;;
6386;SDS011;3226;42.162;24.756;2023-08-31T04:10:35;6.67;;;6.37;;
6386;SDS011;3226;42.162;24.756;2023-08-31T04:13:03;6.97;;;6.67;;
6386;SDS011;3226;42.162;24.756;2023-08-31T04:15:31;6.37;;;6.07;;
6386;SDS011;3226;42.162;24.756;2023-08-31T04:18:02;7.50;;;7.10;;
6386;SDS011;3226;42.162;24.756;2023-08-31T04:20:30;6.13;;;5.93;;
6386;SDS011;3226;42.162;24.756;2023-08-31T04:22:58;5.70;;;5.50;;
6386;SDS011;3226;42.162;24.756;2023-08-31T04:25:28;6.87;;;6.47;;
6386;SDS011;3226;42.162;24.756;2023-08-31T04:27:55;6.77;;;6.47;;
6386;SDS011;3226;42.162;24.756;2023-08-31T04:30:23;7.27;;;6.97;;
6386;SDS011;3226;42.162;24.756;2023-08-31T04:32:51;5.83;;;5.63;;
6386;SDS011;3226;42.162;24.756;2023-08-31T04:35:20;6.73;;;6.43;;
6386;SDS011;3226;42.162;24.756;2023-08-31T04:37:48;7.27;;;6.97;;
6386;SDS011;3226;42.162;24.756;2023-08-31T04:40:16;6.73;;;6.43;;
6386;SDS011;3226;42.162;24.756;2023-08-31T04:42:43;6.73;;;6.43;;
6386;SDS011;3226;42.162;24.756;2023-08-31T04:45:11;7.07;;;6.77;;
6386;SDS011;3226;42.162;24.756;2023-08-31T04:47:39;6.83;;;6.53;;
6386;SDS011;3226;42.162;24.756;2023-08-31T04:50:07;7.17;;;6.87;;
6386;SDS011;3226;42.162;24.756;2023-08-31T04:52:36;7.00;;;6.70;;
6386;SDS011;3226;42.162;24.756;2023-08-31T04:55:05;6.13;;;5.90;;
6386;SDS011;3226;42.162;24.756;2023-08-31T04:57:34;6.80;;;6.50;;
6386;SDS011;3226;42.162;24.756;2023-08-31T05:00:02;7.07;;;6.77;;
6386;SDS011;3226;42.162;24.756;2023-08-31T05:02:31;7.43;;;7.13;;
6386;SDS011;3226;42.162;24.756;2023-08-31T05:04:59;6.40;;;6.10;;
6386;SDS011;3226;42.162;24.756;2023-08-31T05:07:26;6.67;;;6.37;;
6386;SDS011;3226;42.162;24.756;2023-08-31T05:09:55;7.33;;;7.03;;
6386;SDS011;3226;42.162;24.756;2023-08-31T05:12:24;7.77;;;7.47;;
6386;SDS011;3226;42.162;24.756;2023-08-31T05:14:51;6.80;;;6.50;;
6386;SDS011;3226;42.162;24.756;2023-08-31T05:17:19;5.97;;;5.77;;
6386;SDS011;3226;42.162;24.756;2023-08-31T05:19:47;6.93;;;6.63;;
6386;SDS011;3226;42.162;24.756;2023-08-31T05:22:16;7.43;;;7.13;;
6386;SDS011;3226;42.162;24.756;2023-08-31T05:24:44;7.37;;;7.07;;
6386;SDS011;3226;42.162;24.756;2023-08-31T05:27:13;7.70;;;7.37;;
6386;SDS011;3226;42.162;24.756;2023-08-31T05:29:41;7.07;;;6.77;;
6386;SDS011;3226;42.162;24.756;2023-08-31T05:32:09;6.70;;;6.40;;
6386;SDS011;3226;42.162;24.756;2023-08-31T05:34:36;6.53;;;6.23;;
6386;SDS011;3226;42.162;24.756;2023-08-31T05:37:05;6.93;;;6.57;;
6386;SDS011;3226;42.162;24.756;2023-08-31T05:39:33;7.23;;;6.93;;
6386;SDS011;3226;42.162;24.756;2023-08-31T05:42:01;6.83;;;6.53;;
6386;SDS011;3226;42.162;24.756;2023-08-31T05:44:30;6.97;;;6.67;;
6386;SDS011;3226;42.162;24.756;2023-08-31T05:46:58;6.53;;;6.23;;
6386;SDS011;3226;42.162;24.756;2023-08-31T05:49:26;7.70;;;7.13;;
6386;SDS011;3226;42.162;24.756;2023-08-31T05:51:54;6.27;;;5.97;;
6386;SDS011;3226;42.162;24.756;2023-08-31T05:54:22;6.57;;;6.27;;
6386;SDS011;3226;42.162;24.756;2023-08-31T05:56:49;5.97;;;5.77;;
6386;SDS011;3226;42.162;24.756;2023-08-31T05:59:18;6.63;;;6.33;;
6386;SDS011;3226;42.162;24.756;2023-08-31T06:01:47;6.07;;;5.87;;
6386;SDS011;3226;42.162;24.756;2023-08-31T06:04:15;5.80;;;5.60;;
6386;SDS011;3226;42.162;24.756;2023-08-31T06:06:43;5.87;;;5.67;;
6386;SDS011;3226;42.162;24.756;2023-08-31T06:09:10;6.67;;;6.37;;
6386;SDS011;3226;42.162;24.756;2023-08-31T06:11:38;6.60;;;6.30;;
6386;SDS011;3226;42.162;24.756;2023-08-31T06:14:06;6.80;;;6.50;;
6386;SDS011;3226;42.162;24.756;2023-08-31T06:16:34;7.13;;;6.83;;
6386;SDS011;3226;42.162;24.756;2023-08-31T06:19:03;6.00;;;5.80;;
6386;SDS011;3226;42.162;24.756;2023-08-31T06:21:31;8.07;;;7.77;;
6386;SDS011;3226;42.162;24.756;2023-08-31T06:23:59;6.83;;;6.53;;
6386;SDS011;3226;42.162;24.756;2023-08-31T06:26:26;7.30;;;7.00;;
6386;SDS011;3226;42.162;24.756;2023-08-31T06:28:54;7.80;;;7.50;;
6386;SDS011;3226;42.162;24.756;2023-08-31T06:31:22;7.07;;;6.77;;
6386;SDS011;3226;42.162;24.756;2023-08-31T06:33:49;6.53;;;6.23;;
6386;SDS011;3226;42.162;24.756;2023-08-31T06:36:18;6.93;;;6.63;;
6386;SDS011;3226;42.162;24.756;2023-08-31T06:38:46;7.87;;;7.57;;
6386;SDS011;3226;42.162;24.756;2023-08-31T06:41:14;7.60;;;7.30;;
6386;SDS011;3226;42.162;24.756;2023-08-31T06:43:42;6.90;;;6.60;;
6386;SDS011;3226;42.162;24.756;2023-08-31T06:46:09;7.60;;;7.30;;
6386;SDS011;3226;42.162;24.756;2023-08-31T06:48:43;7.87;;;7.50;;
6386;SDS011;3226;42.162;24.756;2023-08-31T06:51:11;7.03;;;6.73;;
6386;SDS011;3226;42.162;24.756;2023-08-31T06:53:41;7.50;;;7.20;;
6386;SDS011;3226;42.162;24.756;2023-08-31T06:56:09;7.03;;;6.73;;
6386;SDS011;3226;42.162;24.756;2023-08-31T06:58:36;7.00;;;6.70;;
6386;SDS011;3226;42.162;24.756;2023-08-31T07:01:05;5.93;;;5.73;;
6386;SDS011;3226;42.162;24.756;2023-08-31T07:03:33;7.27;;;6.97;;
6386;SDS011;3226;42.162;24.756;2023-08-31T07:06:01;6.77;;;6.47;;
6386;SDS011;3226;42.162;24.756;2023-08-31T07:08:29;7.33;;;7.03;;
6386;SDS011;3226;42.162;24.756;2023-08-31T07:10:59;7.03;;;6.73;;
6386;SDS011;3226;42.162;24.756;2023-08-31T07:13:26;5.70;;;5.50;;
6386;SDS011;3226;42.162;24.756;2023-08-31T07:15:54;6.43;;;6.13;;
6386;SDS011;3226;42.162;24.756;2023-08-31T07:18:22;6.27;;;6.03;;
6386;SDS011;3226;42.162;24.756;2023-08-31T07:20:49;6.90;;;6.60;;
6386;SDS011;3226;42.162;24.756;2023-08-31T07:23:17;6.57;;;6.27;;
6386;SDS011;3226;42.162;24.756;2023-08-31T07:25:45;7.50;;;7.20;;
6386;SDS011;3226;42.162;24.756;2023-08-31T07:28:14;8.17;;;7.83;;
6386;SDS011;3226;42.162;24.756;2023-08-31T07:30:42;11.93;;;11.43;;
6386;SDS011;3226;42.162;24.756;2023-08-31T07:33:10;9.57;;;9.17;;
6386;SDS011;3226;42.162;24.756;2023-08-31T07:35:56;8.70;;;8.30;;
6386;SDS011;3226;42.162;24.756;2023-08-31T07:38:26;6.23;;;5.97;;
6386;SDS011;3226;42.162;24.756;2023-08-31T07:40:54;6.70;;;6.40;;
6386;SDS011;3226;42.162;24.756;2023-08-31T07:43:23;7.23;;;6.93;;
6386;SDS011;3226;42.162;24.756;2023-08-31T07:45:51;7.13;;;6.83;;
6386;SDS011;3226;42.162;24.756;2023-08-31T07:48:19;7.97;;;7.57;;
6386;SDS011;3226;42.162;24.756;2023-08-31T07:50:47;6.87;;;6.57;;
6386;SDS011;3226;42.162;24.756;2023-08-31T07:53:15;7.17;;;6.87;;
6386;SDS011;3226;42.162;24.756;2023-08-31T07:55:50;7.90;;;7.60;;
6386;SDS011;3226;42.162;24.756;2023-08-31T07:58:18;7.57;;;7.27;;
6386;SDS011;3226;42.162;24.756;2023-08-31T08:00:47;7.17;;;6.87;;
6386;SDS011;3226;42.162;24.756;2023-08-31T08:03:15;6.77;;;6.47;;
6386;SDS011;3226;42.162;24.756;2023-08-31T08:05:43;7.67;;;7.37;;
6386;SDS011;3226;42.162;24.756;2023-08-31T08:08:11;6.80;;;6.50;;
6386;SDS011;3226;42.162;24.756;2023-08-31T08:10:38;8.03;;;7.73;;
6386;SDS011;3226;42.162;24.756;2023-08-31T08:13:06;9.30;;;8.90;;
6386;SDS011;3226;42.162;24.756;2023-08-31T08:15:34;9.00;;;8.60;;
6386;SDS011;3226;42.162;24.756;2023-08-31T08:18:04;7.33;;;7.03;;
6386;SDS011;3226;42.162;24.756;2023-08-31T08:20:32;7.10;;;6.80;;
6386;SDS011;3226;42.162;24.756;2023-08-31T08:22:59;7.07;;;6.77;;
6386;SDS011;3226;42.162;24.756;2023-08-31T08:25:27;6.60;;;6.30;;
6386;SDS011;3226;42.162;24.756;2023-08-31T08:27:55;7.80;;;7.50;;
6386;SDS011;3226;42.162;24.756;2023-08-31T08:30:22;7.30;;;7.00;;
6386;SDS011;3226;42.162;24.756;2023-08-31T08:32:51;9.00;;;8.60;;
6386;SDS011;3226;42.162;24.756;2023-08-31T08:35:20;8.80;;;8.40;;
6386;SDS011;3226;42.162;24.756;2023-08-31T08:37:48;8.83;;;8.43;;
6386;SDS011;3226;42.162;24.756;2023-08-31T08:40:15;8.00;;;7.70;;
6386;SDS011;3226;42.162;24.756;2023-08-31T08:42:43;8.43;;;8.03;;
6386;SDS011;3226;42.162;24.756;2023-08-31T08:45:14;8.07;;;7.77;;
6386;SDS011;3226;42.162;24.756;2023-08-31T08:47:43;7.60;;;7.30;;
6386;SDS011;3226;42.162;24.756;2023-08-31T08:50:11;7.57;;;7.27;;
6386;SDS011;3226;42.162;24.756;2023-08-31T08:52:40;8.50;;;8.10;;
6386;SDS011;3226;42.162;24.756;2023-08-31T08:55:09;7.90;;;7.60;;
6386;SDS011;3226;42.162;24.756;2023-08-31T08:57:37;7.23;;;6.93;;
6386;SDS011;3226;42.162;24.756;2023-08-31T09:00:06;7.90;;;7.60;;
6386;SDS011;3226;42.162;24.756;2023-08-31T09:02:34;8.10;;;7.70;;
6386;SDS011;3226;42.162;24.756;2023-08-31T09:05:02;7.00;;;6.70;;
6386;SDS011;3226;42.162;24.756;2023-08-31T09:07:30;7.10;;;6.80;;
6386;SDS011;3226;42.162;24.756;2023-08-31T09:10:03;7.30;;;7.00;;
6386;SDS011;3226;42.162;24.756;2023-08-31T09:12:32;6.07;;;5.87;;
6386;SDS011;3226;42.162;24.756;2023-08-31T09:15:03;6.83;;;6.53;;
6386;SDS011;3226;42.162;24.756;2023-08-31T09:17:38;6.80;;;6.50;;
6386;SDS011;3226;42.162;24.756;2023-08-31T09:20:06;6.93;;;6.63;;
6386;SDS011;3226;42.162;24.756;2023-08-31T09:22:35;7.20;;;6.90;;
6386;SDS011;3226;42.162;24.756;2023-08-31T09:25:07;7.40;;;7.10;;
6386;SDS011;3226;42.162;24.756;2023-08-31T09:27:36;7.73;;;7.43;;
6386;SDS011;3226;42.162;24.756;2023-08-31T09:30:05;7.20;;;6.90;;
6386;SDS011;3226;42.162;24.756;2023-08-31T09:32:33;7.47;;;7.17;;
6386;SDS011;3226;42.162;24.756;2023-08-31T09:35:01;7.27;;;6.97;;
6386;SDS011;3226;42.162;24.756;2023-08-31T09:37:47;7.30;;;7.00;;
6386;SDS011;3226;42.162;24.756;2023-08-31T09:40:23;7.10;;;6.80;;
6386;SDS011;3226;42.162;24.756;2023-08-31T09:42:50;7.03;;;6.73;;
6386;SDS011;3226;42.162;24.756;2023-08-31T09:45:22;7.30;;;7.00;;
6386;SDS011;3226;42.162;24.756;2023-08-31T09:48:10;6.67;;;6.37;;
6386;SDS011;3226;42.162;24.756;2023-08-31T09:50:38;6.90;;;6.60;;
6386;SDS011;3226;42.162;24.756;2023-08-31T09:53:06;7.07;;;6.77;;
6386;SDS011;3226;42.162;24.756;2023-08-31T09:55:38;7.13;;;6.83;;
6386;SDS011;3226;42.162;24.756;2023-08-31T09:58:07;7.20;;;6.90;;
6386;SDS011;3226;42.162;24.756;2023-08-31T10:00:42;7.20;;;6.90;;
6386;SDS011;3226;42.162;24.756;2023-08-31T10:03:10;7.40;;;7.10;;
6386;SDS011;3226;42.162;24.756;2023-08-31T10:05:42;7.90;;;7.60;;
6386;SDS011;3226;42.162;24.756;2023-08-31T10:08:11;7.43;;;7.13;;
6386;SDS011;3226;42.162;24.756;2023-08-31T10:10:41;8.50;;;8.10;;
6386;SDS011;3226;42.162;24.756;2023-08-31T10:13:08;8.77;;;8.37;;
6386;SDS011;3226;42.162;24.756;2023-08-31T10:15:37;9.70;;;9.30;;
6386;SDS011;3226;42.162;24.756;2023-08-31T10:18:06;8.10;;;7.80;;
6386;SDS011;3226;42.162;24.756;2023-08-31T10:20:34;7.07;;;6.77;;
6386;SDS011;3226;42.162;24.756;2023-08-31T10:23:02;6.80;;;6.50;;
6386;SDS011;3226;42.162;24.756;2023-08-31T10:28:18;7.40;;;7.10;;
6386;SDS011;3226;42.162;24.756;2023-08-31T10:30:59;7.20;;;6.90;;
6386;SDS011;3226;42.162;24.756;2023-08-31T10:33:28;7.57;;;7.27;;
6386;SDS011;3226;42.162;24.756;2023-08-31T10:35:58;7.97;;;7.67;;
6386;SDS011;3226;42.162;24.756;2023-08-31T10:38:26;8.30;;;7.90;;
6386;SDS011;3226;42.162;24.756;2023-08-31T10:43:46;7.57;;;7.27;;
6386;SDS011;3226;42.162;24.756;2023-08-31T10:46:16;6.90;;;6.60;;
6386;SDS011;3226;42.162;24.756;2023-08-31T10:48:50;8.30;;;7.93;;
6386;SDS011;3226;42.162;24.756;2023-08-31T10:51:18;8.07;;;7.77;;
6386;SDS011;3226;42.162;24.756;2023-08-31T10:53:46;7.43;;;7.13;;
6386;SDS011;3226;42.162;24.756;2023-08-31T10:56:15;8.03;;;7.67;;
6386;SDS011;3226;42.162;24.756;2023-08-31T10:58:43;7.13;;;6.83;;
6386;SDS011;3226;42.162;24.756;2023-08-31T11:01:13;7.07;;;6.77;;
6386;SDS011;3226;42.162;24.756;2023-08-31T11:03:59;7.60;;;7.30;;
6386;SDS011;3226;42.162;24.756;2023-08-31T11:06:27;7.63;;;7.33;;
6386;SDS011;3226;42.162;24.756;2023-08-31T11:08:56;8.40;;;8.00;;
6386;SDS011;3226;42.162;24.756;2023-08-31T11:11:24;7.47;;;7.17;;
6386;SDS011;3226;42.162;24.756;2023-08-31T11:13:56;8.70;;;8.30;;
6386;SDS011;3226;42.162;24.756;2023-08-31T11:16:25;7.53;;;7.23;;
6386;SDS011;3226;42.162;24.756;2023-08-31T11:18:54;7.60;;;7.30;;
6386;SDS011;3226;42.162;24.756;2023-08-31T11:21:22;7.20;;;6.90;;
6386;SDS011;3226;42.162;24.756;2023-08-31T11:23:49;6.87;;;6.57;;
6386;SDS011;3226;42.162;24.756;2023-08-31T11:26:20;7.00;;;6.70;;
6386;SDS011;3226;42.162;24.756;2023-08-31T11:28:47;8.23;;;7.83;;
6386;SDS011;3226;42.162;24.756;2023-08-31T11:31:22;7.60;;;7.30;;
6386;SDS011;3226;42.162;24.756;2023-08-31T11:33:51;7.70;;;7.40;;
6386;SDS011;3226;42.162;24.756;2023-08-31T11:36:19;7.37;;;7.07;;
6386;SDS011;3226;42.162;24.756;2023-08-31T11:38:47;7.47;;;7.17;;
6386;SDS011;3226;42.162;24.756;2023-08-31T11:41:14;7.90;;;7.60;;
6386;SDS011;3226;42.162;24.756;2023-08-31T11:43:42;7.50;;;7.20;;
6386;SDS011;3226;42.162;24.756;2023-08-31T11:46:10;6.77;;;6.47;;
6386;SDS011;3226;42.162;24.756;2023-08-31T11:48:38;8.77;;;8.37;;
6386;SDS011;3226;42.162;24.756;2023-08-31T11:51:08;8.70;;;8.30;;
6386;SDS011;3226;42.162;24.756;2023-08-31T11:53:36;9.10;;;8.70;;
6386;SDS011;3226;42.162;24.756;2023-08-31T11:56:04;9.30;;;8.90;;
6386;SDS011;3226;42.162;24.756;2023-08-31T11:58:32;8.30;;;8.00;;
6386;SDS011;3226;42.162;24.756;2023-08-31T12:01:00;9.20;;;8.80;;
6386;SDS011;3226;42.162;24.756;2023-08-31T12:03:28;8.90;;;8.50;;
6386;SDS011;3226;42.162;24.756;2023-08-31T12:06:17;9.73;;;9.33;;
6386;SDS011;3226;42.162;24.756;2023-08-31T12:08:45;10.17;;;9.73;;
6386;SDS011;3226;42.162;24.756;2023-08-31T12:11:13;10.70;;;10.20;;
6386;SDS011;3226;42.162;24.756;2023-08-31T12:13:41;8.03;;;7.73;;
6386;SDS011;3226;42.162;24.756;2023-08-31T12:16:12;8.83;;;8.43;;
6386;SDS011;3226;42.162;24.756;2023-08-31T12:18:40;8.93;;;8.53;;
6386;SDS011;3226;42.162;24.756;2023-08-31T12:21:08;8.10;;;7.80;;
6386;SDS011;3226;42.162;24.756;2023-08-31T12:23:37;7.77;;;7.47;;
6386;SDS011;3226;42.162;24.756;2023-08-31T12:26:05;8.03;;;7.73;;
6386;SDS011;3226;42.162;24.756;2023-08-31T12:28:34;7.10;;;6.80;;
6386;SDS011;3226;42.162;24.756;2023-08-31T12:31:02;8.00;;;7.70;;
6386;SDS011;3226;42.162;24.756;2023-08-31T12:33:30;8.47;;;8.07;;
6386;SDS011;3226;42.162;24.756;2023-08-31T12:35:58;7.90;;;7.60;;
6386;SDS011;3226;42.162;24.756;2023-08-31T12:38:29;7.67;;;7.37;;
6386;SDS011;3226;42.162;24.756;2023-08-31T12:40:59;7.90;;;7.60;;
6386;SDS011;3226;42.162;24.756;2023-08-31T12:43:28;7.03;;;6.73;;
6386;SDS011;3226;42.162;24.756;2023-08-31T12:45:56;7.40;;;7.10;;
6386;SDS011;3226;42.162;24.756;2023-08-31T12:48:23;8.77;;;8.37;;
6386;SDS011;3226;42.162;24.756;2023-08-31T12:50:51;9.80;;;9.40;;
6386;SDS011;3226;42.162;24.756;2023-08-31T12:53:20;10.60;;;10.13;;
6386;SDS011;3226;42.162;24.756;2023-08-31T12:55:48;11.17;;;10.67;;
6386;SDS011;3226;42.162;24.756;2023-08-31T12:58:17;10.90;;;10.40;;
6386;SDS011;3226;42.162;24.756;2023-08-31T13:00:45;8.43;;;8.03;;
6386;SDS011;3226;42.162;24.756;2023-08-31T13:03:15;7.43;;;7.13;;
6386;SDS011;3226;42.162;24.756;2023-08-31T13:05:43;7.33;;;7.03;;
6386;SDS011;3226;42.162;24.756;2023-08-31T13:08:10;7.87;;;7.57;;
6386;SDS011;3226;42.162;24.756;2023-08-31T13:10:38;8.00;;;7.70;;
6386;SDS011;3226;42.162;24.756;2023-08-31T13:13:06;8.17;;;7.77;;
6386;SDS011;3226;42.162;24.756;2023-08-31T13:15:35;7.27;;;6.97;;
6386;SDS011;3226;42.162;24.756;2023-08-31T13:18:03;7.63;;;7.33;;
6386;SDS011;3226;42.162;24.756;2023-08-31T13:20:31;6.50;;;6.20;;
6386;SDS011;3226;42.162;24.756;2023-08-31T13:23:00;7.83;;;7.53;;
6386;SDS011;3226;42.162;24.756;2023-08-31T13:25:29;7.50;;;7.20;;
6386;SDS011;3226;42.162;24.756;2023-08-31T13:27:57;7.40;;;7.10;;
6386;SDS011;3226;42.162;24.756;2023-08-31T13:30:24;7.50;;;7.20;;
6386;SDS011;3226;42.162;24.756;2023-08-31T13:32:53;8.70;;;8.30;;
6386;SDS011;3226;42.162;24.756;2023-08-31T13:35:21;8.33;;;7.93;;
6386;SDS011;3226;42.162;24.756;2023-08-31T13:37:49;8.00;;;7.70;;
6386;SDS011;3226;42.162;24.756;2023-08-31T13:40:16;7.40;;;7.10;;
6386;SDS011;3226;42.162;24.756;2023-08-31T13:42:49;7.90;;;7.60;;
6386;SDS011;3226;42.162;24.756;2023-08-31T13:45:20;7.53;;;7.23;;
6386;SDS011;3226;42.162;24.756;2023-08-31T13:47:47;9.10;;;8.70;;
6386;SDS011;3226;42.162;24.756;2023-08-31T13:50:16;9.20;;;8.80;;
6386;SDS011;3226;42.162;24.756;2023-08-31T13:52:44;8.10;;;7.80;;
6386;SDS011;3226;42.162;24.756;2023-08-31T13:55:12;7.60;;;7.30;;
6386;SDS011;3226;42.162;24.756;2023-08-31T13:57:41;9.57;;;9.17;;
6386;SDS011;3226;42.162;24.756;2023-08-31T14:00:09;8.80;;;8.40;;
6386;SDS011;3226;42.162;24.756;2023-08-31T14:02:37;8.43;;;8.03;;
6386;SDS011;3226;42.162;24.756;2023-08-31T14:05:05;9.50;;;9.10;;
6386;SDS011;3226;42.162;24.756;2023-08-31T14:07:36;8.50;;;8.10;;
6386;SDS011;3226;42.162;24.756;2023-08-31T14:10:04;9.20;;;8.80;;
6386;SDS011;3226;42.162;24.756;2023-08-31T14:12:33;7.90;;;7.60;;
6386;SDS011;3226;42.162;24.756;2023-08-31T14:15:00;9.37;;;8.97;;
6386;SDS011;3226;42.162;24.756;2023-08-31T14:17:30;8.40;;;8.03;;
6386;SDS011;3226;42.162;24.756;2023-08-31T14:19:58;9.00;;;8.60;;
6386;SDS011;3226;42.162;24.756;2023-08-31T14:22:26;8.37;;;7.97;;
6386;SDS011;3226;42.162;24.756;2023-08-31T14:24:56;8.77;;;8.37;;
6386;SDS011;3226;42.162;24.756;2023-08-31T14:27:24;8.83;;;8.43;;
6386;SDS011;3226;42.162;24.756;2023-08-31T14:29:52;7.73;;;7.43;;
6386;SDS011;3226;42.162;24.756;2023-08-31T14:32:19;7.50;;;7.20;;
6386;SDS011;3226;42.162;24.756;2023-08-31T14:34:47;7.90;;;7.60;;
6386;SDS011;3226;42.162;24.756;2023-08-31T14:37:15;6.70;;;6.40;;
6386;SDS011;3226;42.162;24.756;2023-08-31T14:39:42;7.20;;;6.90;;
6386;SDS011;3226;42.162;24.756;2023-08-31T14:42:11;9.20;;;8.80;;
6386;SDS011;3226;42.162;24.756;2023-08-31T14:44:41;8.43;;;8.03;;
6386;SDS011;3226;42.162;24.756;2023-08-31T14:47:10;8.30;;;7.93;;
6386;SDS011;3226;42.162;24.756;2023-08-31T14:49:38;9.67;;;9.27;;
6386;SDS011;3226;42.162;24.756;2023-08-31T14:52:06;8.90;;;8.50;;
6386;SDS011;3226;42.162;24.756;2023-08-31T14:54:34;7.73;;;7.43;;
6386;SDS011;3226;42.162;24.756;2023-08-31T14:57:01;7.47;;;7.17;;
6386;SDS011;3226;42.162;24.756;2023-08-31T14:59:32;7.00;;;6.70;;
6386;SDS011;3226;42.162;24.756;2023-08-31T15:02:00;6.80;;;6.50;;
6386;SDS011;3226;42.162;24.756;2023-08-31T15:04:31;7.30;;;7.00;;
6386;SDS011;3226;42.162;24.756;2023-08-31T15:06:59;8.10;;;7.80;;
6386;SDS011;3226;42.162;24.756;2023-08-31T15:09:27;7.90;;;7.60;;
6386;SDS011;3226;42.162;24.756;2023-08-31T15:11:55;7.57;;;7.27;;
6386;SDS011;3226;42.162;24.756;2023-08-31T15:14:23;6.90;;;6.60;;